createdAt,value
2019-04-06T00:02:11.004Z,7.66
2019-04-06T00:04:39.229Z,7.67
2019-04-06T00:07:07.478Z,7.77
2019-04-06T00:09:35.711Z,7.70
2019-04-06T00:12:03.876Z,7.73
2019-04-06T00:14:32.060Z,7.58
2019-04-06T00:17:00.347Z,7.67
2019-04-06T00:19:28.606Z,7.59
2019-04-06T00:21:56.758Z,7.42
2019-04-06T00:24:25.037Z,7.41
2019-04-06T00:26:53.281Z,7.46
2019-04-06T00:29:21.523Z,7.44
2019-04-06T00:31:56.800Z,7.55
2019-04-06T00:34:25.074Z,7.48
2019-04-06T00:36:53.228Z,7.68
2019-04-06T00:39:21.477Z,7.61
2019-04-06T00:41:49.716Z,7.74
2019-04-06T00:44:17.894Z,7.68
2019-04-06T00:46:46.114Z,7.77
2019-04-06T00:49:14.355Z,7.91
2019-04-06T00:51:42.488Z,7.63
2019-04-06T00:54:10.638Z,7.62
2019-04-06T00:56:38.778Z,7.64
2019-04-06T00:59:07.065Z,7.72
2019-04-06T01:01:35.228Z,7.90
2019-04-06T01:04:03.415Z,7.84
2019-04-06T01:06:31.578Z,7.89
2019-04-06T01:08:59.766Z,7.91
2019-04-06T01:11:27.973Z,7.80
2019-04-06T01:13:56.170Z,7.87
2019-04-06T01:16:24.375Z,7.84
2019-04-06T01:18:52.522Z,7.76
2019-04-06T01:21:20.741Z,7.63
2019-04-06T01:23:48.902Z,7.71
2019-04-06T01:26:17.098Z,7.77
2019-04-06T01:28:45.318Z,7.73
2019-04-06T01:31:13.537Z,7.74
2019-04-06T01:33:41.815Z,7.82
2019-04-06T01:36:10.043Z,7.83
2019-04-06T01:38:38.201Z,7.75
2019-04-06T01:41:06.394Z,7.69
2019-04-06T01:43:34.541Z,7.73
2019-04-06T01:46:02.739Z,7.53
2019-04-06T01:48:30.934Z,7.62
2019-04-06T01:50:59.181Z,7.63
2019-04-06T01:53:27.361Z,7.63
2019-04-06T01:55:55.579Z,7.68
2019-04-06T01:58:23.803Z,7.73
2019-04-06T02:01:23.134Z,7.60
2019-04-06T02:03:51.375Z,7.66
2019-04-06T02:06:19.587Z,7.60
2019-04-06T02:08:47.761Z,7.60
2019-04-06T02:11:15.987Z,7.50
2019-04-06T02:13:44.136Z,7.56
2019-04-06T02:16:12.416Z,7.65
2019-04-06T02:18:40.539Z,7.62
2019-04-06T02:21:08.748Z,7.61
2019-04-06T02:23:36.960Z,7.60
2019-04-06T02:26:05.090Z,7.64
2019-04-06T02:28:33.271Z,7.66
2019-04-06T02:31:06.716Z,7.67
2019-04-06T02:34:03.776Z,7.73
2019-04-06T02:37:08.899Z,7.77
2019-04-06T02:39:53.742Z,7.80
2019-04-06T02:42:26.583Z,7.82
2019-04-06T02:44:54.684Z,7.87
2019-04-06T02:47:22.930Z,7.83
2019-04-06T02:49:51.164Z,7.66
2019-04-06T02:52:19.356Z,7.86
2019-04-06T02:54:47.555Z,7.89
2019-04-06T02:57:15.885Z,7.81
2019-04-06T02:59:44.847Z,7.87
2019-04-06T03:02:13.223Z,7.89
2019-04-06T03:04:41.503Z,7.85
2019-04-06T03:07:10.405Z,7.89
2019-04-06T03:09:38.642Z,7.66
2019-04-06T03:12:06.976Z,7.83
2019-04-06T03:14:35.203Z,7.82
2019-04-06T03:17:03.347Z,7.75
2019-04-06T03:19:31.518Z,7.75
2019-04-06T03:21:59.637Z,7.77
2019-04-06T03:24:27.802Z,7.76
2019-04-06T03:27:02.145Z,7.86
2019-04-06T03:29:25.867Z,7.81
2019-04-06T03:31:54.135Z,7.88
2019-04-06T03:34:23.098Z,7.84
2019-04-06T03:36:51.518Z,7.94
2019-04-06T03:39:19.687Z,7.73
2019-04-06T03:41:47.879Z,7.91
2019-04-06T03:44:16.038Z,7.90
2019-04-06T03:46:44.426Z,7.87
2019-04-06T03:49:12.773Z,7.83
2019-04-06T03:51:40.931Z,7.84
2019-04-06T03:54:09.089Z,7.85
2019-04-06T03:56:37.469Z,7.91
2019-04-06T03:59:05.684Z,7.93
2019-04-06T04:01:33.837Z,8.10
2019-04-06T04:04:02.016Z,8.17
2019-04-06T04:06:30.288Z,8.01
2019-04-06T04:08:58.633Z,7.86
2019-04-06T04:11:26.817Z,7.96
2019-04-06T04:13:55.204Z,7.95
2019-04-06T04:16:23.448Z,8.10
2019-04-06T04:18:51.691Z,8.12
2019-04-06T04:21:19.834Z,7.95
2019-04-06T04:23:48.045Z,8.07
2019-04-06T04:26:16.151Z,7.99
2019-04-06T04:28:44.322Z,8.07
2019-04-06T04:31:12.502Z,8.06
2019-04-06T04:33:40.682Z,8.09
2019-04-06T04:36:08.880Z,8.12
2019-04-06T04:38:37.029Z,8.13
2019-04-06T04:41:05.340Z,8.00
2019-04-06T04:43:33.605Z,8.08
2019-04-06T04:46:01.821Z,7.89
2019-04-06T04:48:30.117Z,7.81
2019-04-06T04:50:58.203Z,7.80
2019-04-06T04:53:26.392Z,7.81
2019-04-06T04:55:54.559Z,7.73
2019-04-06T04:58:22.718Z,7.80
2019-04-06T05:00:51.183Z,7.74
2019-04-06T05:03:19.511Z,7.68
2019-04-06T05:05:47.644Z,7.68
2019-04-06T05:08:15.843Z,7.68
2019-04-06T05:10:44.401Z,7.64
2019-04-06T05:13:12.610Z,7.56
2019-04-06T05:16:16.825Z,7.61
2019-04-06T05:18:45.070Z,7.61
2019-04-06T05:21:13.896Z,7.69
2019-04-06T05:23:42.028Z,7.74
2019-04-06T05:26:10.165Z,7.79
2019-04-06T05:28:38.281Z,7.90
2019-04-06T05:31:06.481Z,7.84
2019-04-06T05:33:34.826Z,7.84
2019-04-06T05:36:03.069Z,7.91
2019-04-06T05:38:31.219Z,7.87
2019-04-06T05:40:59.389Z,7.82
2019-04-06T05:43:27.672Z,7.81
2019-04-06T05:45:55.879Z,7.86
2019-04-06T05:48:24.106Z,7.93
2019-04-06T05:50:52.191Z,7.96
2019-04-06T05:53:20.410Z,7.90
2019-04-06T05:55:48.569Z,8.06
2019-04-06T05:58:16.817Z,8.00
2019-04-06T06:00:44.961Z,8.03
2019-04-06T06:03:15.364Z,8.08
2019-04-06T06:05:42.951Z,8.13
2019-04-06T06:08:11.348Z,8.16
2019-04-06T06:10:39.495Z,8.03
2019-04-06T06:13:07.647Z,8.09
2019-04-06T06:15:35.807Z,8.18
2019-04-06T06:18:27.395Z,8.25
2019-04-06T06:20:54.378Z,8.12
2019-04-06T06:23:22.458Z,8.13
2019-04-06T06:25:50.606Z,8.27
2019-04-06T06:28:18.835Z,8.37
2019-04-06T06:30:46.935Z,8.47
2019-04-06T06:33:15.099Z,8.66
2019-04-06T06:35:43.256Z,8.61
2019-04-06T06:38:11.611Z,8.72
2019-04-06T06:40:39.824Z,8.75
2019-04-06T06:43:08.035Z,8.94
2019-04-06T06:45:36.250Z,9.05
2019-04-06T06:48:04.490Z,9.23
2019-04-06T06:50:34.582Z,9.34
2019-04-06T06:53:02.499Z,9.48
2019-04-06T06:55:30.705Z,9.61
2019-04-06T06:57:59.128Z,9.83
2019-04-06T07:00:27.269Z,9.91
2019-04-06T07:02:55.413Z,9.80
2019-04-06T07:05:23.644Z,9.93
2019-04-06T07:07:51.917Z,10.07
2019-04-06T07:10:20.105Z,10.13
2019-04-06T07:12:48.336Z,10.22
2019-04-06T07:15:16.615Z,10.21
2019-04-06T07:17:44.807Z,10.36
2019-04-06T07:20:13.186Z,10.30
2019-04-06T07:22:41.374Z,10.55
2019-04-06T07:25:09.630Z,10.56
2019-04-06T07:27:38.025Z,10.60
2019-04-06T07:30:07.200Z,10.66
2019-04-06T07:32:35.394Z,10.78
2019-04-06T07:35:03.783Z,10.77
2019-04-06T07:37:31.876Z,10.85
2019-04-06T07:40:00.125Z,10.90
2019-04-06T07:42:28.188Z,10.99
2019-04-06T07:44:56.438Z,10.86
2019-04-06T07:47:24.738Z,10.96
2019-04-06T07:49:52.881Z,10.94
2019-04-06T07:52:21.127Z,10.96
2019-04-06T07:54:49.354Z,10.96
2019-04-06T07:57:17.554Z,11.18
2019-04-06T07:59:45.802Z,10.84
2019-04-06T08:02:14.141Z,11.26
2019-04-06T08:04:42.372Z,11.40
2019-04-06T08:07:10.620Z,11.59
2019-04-06T08:09:38.836Z,11.55
2019-04-06T08:12:07.033Z,11.63
2019-04-06T08:14:35.218Z,11.72
2019-04-06T08:17:03.379Z,11.81
2019-04-06T08:19:31.826Z,11.91
2019-04-06T08:22:00.266Z,11.78
2019-04-06T08:24:28.487Z,11.89
2019-04-06T08:26:56.727Z,11.96
2019-04-06T08:29:24.939Z,12.15
2019-04-06T08:31:53.052Z,12.24
2019-04-06T08:34:23.342Z,12.60
2019-04-06T08:36:51.803Z,12.76
2019-04-06T08:39:20.100Z,12.78
2019-04-06T08:41:48.273Z,12.89
2019-04-06T08:44:16.433Z,12.95
2019-04-06T08:46:44.652Z,13.11
2019-04-06T08:49:12.889Z,12.93
2019-04-06T08:51:41.065Z,13.14
2019-04-06T08:54:09.867Z,13.24
2019-04-06T08:56:38.027Z,13.33
2019-04-06T08:59:11.967Z,13.44
2019-04-06T09:01:36.235Z,13.26
2019-04-06T09:04:04.417Z,12.34
2019-04-06T09:06:32.844Z,12.88
2019-04-06T09:09:01.037Z,13.57
2019-04-06T09:11:29.194Z,14.15
2019-04-06T09:13:57.437Z,14.42
2019-04-06T09:16:25.628Z,14.67
2019-04-06T09:18:53.944Z,14.45
2019-04-06T09:21:25.002Z,14.29
2019-04-06T09:23:53.228Z,14.32
2019-04-06T09:26:24.837Z,14.74
2019-04-06T09:28:53.009Z,13.95
2019-04-06T09:31:21.145Z,14.94
2019-04-06T09:33:49.750Z,15.33
2019-04-06T09:36:18.376Z,15.58
2019-04-06T09:38:46.991Z,15.91
2019-04-06T09:41:15.196Z,16.12
2019-04-06T09:43:43.679Z,16.29
2019-04-06T09:46:40.122Z,16.57
2019-04-06T09:49:14.923Z,16.74
2019-04-06T09:52:05.009Z,16.86
2019-04-06T09:54:52.136Z,17.02
2019-04-06T09:57:38.114Z,17.25
2019-04-06T10:00:15.665Z,17.45
2019-04-06T10:03:01.097Z,17.77
2019-04-06T10:05:57.159Z,17.19
2019-04-06T10:08:50.257Z,17.99
2019-04-06T10:11:32.384Z,18.52
2019-04-06T10:14:26.284Z,18.80
2019-04-06T10:17:19.409Z,18.19
2019-04-06T10:19:56.731Z,19.05
2019-04-06T10:22:40.791Z,19.40
2019-04-06T10:25:28.028Z,19.65
2019-04-06T10:28:24.447Z,19.83
2019-04-06T10:31:12.248Z,19.92
2019-04-06T10:34:11.323Z,19.38
2019-04-06T10:37:01.540Z,19.72
2019-04-06T10:39:57.670Z,20.44
2019-04-06T10:42:48.957Z,20.85
2019-04-06T10:45:36.155Z,20.76
2019-04-06T10:48:25.012Z,21.12
2019-04-06T10:51:10.056Z,21.41
2019-04-06T10:53:45.246Z,21.42
2019-04-06T10:56:41.358Z,21.42
2019-04-06T10:59:43.691Z,21.83
2019-04-06T11:02:29.265Z,22.13
2019-04-06T11:05:19.065Z,21.93
2019-04-06T11:07:55.463Z,21.86
2019-04-06T11:10:42.720Z,21.77
2019-04-06T11:13:28.444Z,22.76
2019-04-06T11:16:10.458Z,23.21
2019-04-06T11:18:56.123Z,23.15
2019-04-06T11:21:42.000Z,23.34
2019-04-06T11:24:32.146Z,23.55
2019-04-06T11:27:18.038Z,23.20
2019-04-06T11:30:14.966Z,23.65
2019-04-06T11:33:02.639Z,24.16
2019-04-06T11:35:54.324Z,24.24
2019-04-06T11:38:35.946Z,24.21
2019-04-06T11:41:35.234Z,23.77
2019-04-06T11:44:14.333Z,24.73
2019-04-06T11:46:55.950Z,24.73
2019-04-06T11:49:38.644Z,24.78
2019-04-06T11:52:16.640Z,25.00
2019-04-06T11:55:00.741Z,23.77
2019-04-06T11:57:35.856Z,23.28
2019-04-06T12:00:24.478Z,24.76
2019-04-06T12:02:59.366Z,25.22
2019-04-06T12:05:55.509Z,25.34
2019-04-06T12:08:57.688Z,24.47
2019-04-06T12:11:45.112Z,23.78
2019-04-06T12:14:35.182Z,22.86
2019-04-06T12:17:22.328Z,22.43
2019-04-06T12:20:04.191Z,22.02
2019-04-06T12:23:06.718Z,21.52
2019-04-06T12:25:52.547Z,22.45
2019-04-06T12:28:27.918Z,23.41
2019-04-06T12:31:30.266Z,23.45
2019-04-06T12:34:12.737Z,24.23
2019-04-06T12:36:58.672Z,25.45
2019-04-06T12:39:52.530Z,25.63
2019-04-06T12:42:26.498Z,25.60
2019-04-06T12:45:12.092Z,26.07
2019-04-06T12:47:57.568Z,25.48
2019-04-06T12:50:59.438Z,26.21
2019-04-06T12:53:46.597Z,26.18
2019-04-06T12:56:49.297Z,26.35
2019-04-06T12:59:39.185Z,26.19
2019-04-06T13:02:27.147Z,25.98
2019-04-06T13:05:23.433Z,26.73
2019-04-06T13:08:22.593Z,26.12
2019-04-06T13:11:06.699Z,26.07
2019-04-06T13:13:46.532Z,26.97
2019-04-06T13:16:32.233Z,27.06
2019-04-06T13:19:18.075Z,27.33
2019-04-06T13:22:05.608Z,27.01
2019-04-06T13:24:55.575Z,27.09
2019-04-06T13:27:33.784Z,26.62
2019-04-06T13:30:21.008Z,26.70
2019-04-06T13:33:17.363Z,24.10
2019-04-06T13:36:07.267Z,26.60
2019-04-06T13:38:46.335Z,27.05
2019-04-06T13:41:51.684Z,24.98
2019-04-06T13:44:48.111Z,26.60
2019-04-06T13:47:38.123Z,26.25
2019-04-06T13:50:28.631Z,25.93
2019-04-06T13:53:15.854Z,26.10
2019-04-06T13:56:06.155Z,26.97
2019-04-06T13:58:43.495Z,27.26
2019-04-06T14:01:30.471Z,26.94
2019-04-06T14:04:20.433Z,25.86
2019-04-06T14:07:25.740Z,26.20
2019-04-06T14:10:08.869Z,26.57
2019-04-06T14:12:58.833Z,25.15
2019-04-06T14:15:38.245Z,26.39
2019-04-06T14:18:16.762Z,26.12
2019-04-06T14:21:15.882Z,26.14
2019-04-06T14:24:15.486Z,25.95
2019-04-06T14:27:02.875Z,26.45
2019-04-06T14:29:56.091Z,27.01
2019-04-06T14:32:55.165Z,27.10
2019-04-06T14:35:42.305Z,26.79
2019-04-06T14:38:32.292Z,27.47
2019-04-06T14:41:17.970Z,27.65
2019-04-06T14:44:05.916Z,27.91
2019-04-06T14:46:51.372Z,27.15
2019-04-06T14:49:35.038Z,27.75
2019-04-06T14:52:24.708Z,27.63
2019-04-06T14:55:12.494Z,25.23
2019-04-06T14:57:49.256Z,27.60
2019-04-06T15:00:36.870Z,27.26
2019-04-06T15:03:16.027Z,27.03
2019-04-06T15:05:52.816Z,27.31
2019-04-06T15:08:40.177Z,27.32
2019-04-06T15:11:24.726Z,26.51
2019-04-06T15:14:13.776Z,27.29
2019-04-06T15:17:06.277Z,27.05
2019-04-06T15:19:44.691Z,27.04
2019-04-06T15:22:31.667Z,27.44
2019-04-06T15:25:08.167Z,26.97
2019-04-06T15:28:04.474Z,27.23
2019-04-06T15:30:46.440Z,26.37
2019-04-06T15:33:36.473Z,27.14
2019-04-06T15:36:22.389Z,26.37
2019-04-06T15:39:12.618Z,26.53
2019-04-06T15:41:58.029Z,26.26
2019-04-06T15:44:47.969Z,26.70
2019-04-06T15:47:47.306Z,26.48
2019-04-06T15:50:32.995Z,26.60
2019-04-06T15:53:28.810Z,26.16
2019-04-06T15:56:05.742Z,26.51
2019-04-06T15:58:40.971Z,26.30
2019-04-06T16:01:40.190Z,26.32
2019-04-06T16:04:25.969Z,26.16
2019-04-06T16:07:11.617Z,26.23
2019-04-06T16:09:57.708Z,25.89
2019-04-06T16:12:34.541Z,25.71
2019-04-06T16:15:20.559Z,25.91
2019-04-06T16:18:05.518Z,25.68
2019-04-06T16:20:48.750Z,25.37
2019-04-06T16:23:29.384Z,25.47
2019-04-06T16:26:05.829Z,24.73
2019-04-06T16:28:51.485Z,25.17
2019-04-06T16:31:37.511Z,25.12
2019-04-06T16:34:16.507Z,24.86
2019-04-06T16:37:06.393Z,24.75
2019-04-06T16:39:40.759Z,24.46
2019-04-06T16:42:43.079Z,24.39
2019-04-06T16:45:26.164Z,24.52
2019-04-06T16:48:13.152Z,24.34
2019-04-06T16:51:03.036Z,24.32
2019-04-06T16:53:56.427Z,24.24
2019-04-06T16:56:41.965Z,23.66
2019-04-06T16:59:20.865Z,23.72
2019-04-06T17:02:24.385Z,23.31
2019-04-06T17:05:07.752Z,22.79
2019-04-06T17:07:56.163Z,23.07
2019-04-06T17:10:43.313Z,23.27
2019-04-06T17:13:22.241Z,23.17
2019-04-06T17:16:12.208Z,22.93
2019-04-06T17:18:56.130Z,22.83
2019-04-06T17:21:52.209Z,22.71
2019-04-06T17:24:31.723Z,22.61
2019-04-06T17:27:15.101Z,22.14
2019-04-06T17:30:02.192Z,22.18
2019-04-06T17:32:56.231Z,22.07
2019-04-06T17:35:41.622Z,21.59
2019-04-06T17:38:16.968Z,21.64
2019-04-06T17:41:04.316Z,21.54
2019-04-06T17:43:57.579Z,21.39
2019-04-06T17:46:35.704Z,21.08
2019-04-06T17:49:31.836Z,20.98
2019-04-06T17:52:17.594Z,20.75
2019-04-06T17:55:04.908Z,20.65
2019-04-06T17:57:40.643Z,20.43
2019-04-06T18:00:37.088Z,20.21
2019-04-06T18:03:30.558Z,19.72
2019-04-06T18:06:16.441Z,19.83
2019-04-06T18:09:13.053Z,19.71
2019-04-06T18:12:03.096Z,19.62
2019-04-06T18:14:30.723Z,19.32
2019-04-06T18:16:58.794Z,19.20
2019-04-06T18:19:27.394Z,19.12
2019-04-06T18:21:55.678Z,18.99
2019-04-06T18:24:23.958Z,18.85
2019-04-06T18:26:52.294Z,18.70
2019-04-06T18:29:20.635Z,18.47
2019-04-06T18:32:16.313Z,18.43
2019-04-06T18:34:44.588Z,18.27
2019-04-06T18:37:31.795Z,18.10
2019-04-06T18:40:01.742Z,17.97
2019-04-06T18:42:29.986Z,17.72
2019-04-06T18:44:58.745Z,17.58
2019-04-06T18:47:27.549Z,17.37
2019-04-06T18:49:55.927Z,17.21
2019-04-06T18:52:24.093Z,17.05
2019-04-06T18:54:52.273Z,16.86
2019-04-06T18:57:20.927Z,16.85
2019-04-06T18:59:49.268Z,16.79
2019-04-06T19:02:17.707Z,16.57
2019-04-06T19:04:46.462Z,16.47
2019-04-06T19:07:15.323Z,16.37
2019-04-06T19:09:44.131Z,16.18
2019-04-06T19:12:12.321Z,15.88
2019-04-06T19:14:40.766Z,15.87
2019-04-06T19:17:08.910Z,15.78
2019-04-06T19:19:37.406Z,15.62
2019-04-06T19:22:05.821Z,15.62
2019-04-06T19:24:34.103Z,15.40
2019-04-06T19:27:02.422Z,15.14
2019-04-06T19:29:30.556Z,15.16
2019-04-06T19:31:58.960Z,14.98
2019-04-06T19:34:27.414Z,14.89
2019-04-06T19:36:55.741Z,14.76
2019-04-06T19:39:24.183Z,14.66
2019-04-06T19:41:52.628Z,14.50
2019-04-06T19:44:20.902Z,14.50
2019-04-06T19:46:49.088Z,14.48
2019-04-06T19:49:17.863Z,14.28
2019-04-06T19:51:46.583Z,14.11
2019-04-06T19:54:14.877Z,14.17
2019-04-06T19:56:43.258Z,14.07
2019-04-06T19:59:12.962Z,13.94
2019-04-06T20:01:41.456Z,13.86
2019-04-06T20:04:10.151Z,13.70
2019-04-06T20:06:38.279Z,13.56
2019-04-06T20:09:08.539Z,13.53
2019-04-06T20:11:35.757Z,13.47
2019-04-06T20:14:04.144Z,13.43
2019-04-06T20:16:32.348Z,13.27
2019-04-06T20:19:00.675Z,13.23
2019-04-06T20:21:28.816Z,13.15
2019-04-06T20:23:57.235Z,13.00
2019-04-06T20:26:25.784Z,12.91
2019-04-06T20:28:53.952Z,12.70
2019-04-06T20:31:22.186Z,12.76
2019-04-06T20:33:52.368Z,12.66
2019-04-06T20:36:20.491Z,12.56
2019-04-06T20:38:48.717Z,12.49
2019-04-06T20:41:16.926Z,12.42
2019-04-06T20:43:45.312Z,12.31
2019-04-06T20:46:13.477Z,12.23
2019-04-06T20:48:41.648Z,12.13
2019-04-06T20:51:10.509Z,12.05
2019-04-06T20:53:41.823Z,11.95
2019-04-06T20:56:09.961Z,11.85
2019-04-06T20:58:38.341Z,11.73
2019-04-06T21:01:06.645Z,11.56
2019-04-06T21:03:34.838Z,11.58
2019-04-06T21:06:03.085Z,11.54
2019-04-06T21:08:32.023Z,11.39
2019-04-06T21:11:00.347Z,11.42
2019-04-06T21:13:28.597Z,11.33
2019-04-06T21:15:56.764Z,11.29
2019-04-06T21:18:25.308Z,11.22
2019-04-06T21:20:54.271Z,11.13
2019-04-06T21:23:22.862Z,11.04
2019-04-06T21:25:51.959Z,10.98
2019-04-06T21:28:20.778Z,10.88
2019-04-06T21:30:49.118Z,10.81
2019-04-06T21:33:17.265Z,10.66
2019-04-06T21:35:45.817Z,10.67
2019-04-06T21:38:13.993Z,10.56
2019-04-06T21:40:42.147Z,10.50
2019-04-06T21:43:10.382Z,10.40
2019-04-06T21:45:38.698Z,10.38
2019-04-06T21:48:07.517Z,10.28
2019-04-06T21:50:35.719Z,10.20
2019-04-06T21:53:03.871Z,10.15
2019-04-06T21:55:32.307Z,10.08
2019-04-06T21:58:00.565Z,10.07
2019-04-06T22:00:46.565Z,9.95
2019-04-06T22:03:14.791Z,9.88
2019-04-06T22:05:42.974Z,9.81
2019-04-06T22:08:11.805Z,9.78
2019-04-06T22:10:40.097Z,9.68
2019-04-06T22:13:08.437Z,9.68
2019-04-06T22:15:37.162Z,9.66
2019-04-06T22:18:06.129Z,9.60
2019-04-06T22:20:34.553Z,9.53
2019-04-06T22:23:04.184Z,9.48
2019-04-06T22:25:32.353Z,9.42
2019-04-06T22:28:00.783Z,9.40
2019-04-06T22:30:29.000Z,9.33
2019-04-06T22:32:57.340Z,9.22
2019-04-06T22:35:25.702Z,9.19
2019-04-06T22:37:55.371Z,9.13
2019-04-06T22:40:23.842Z,9.11
2019-04-06T22:42:52.723Z,8.98
2019-04-06T22:45:21.929Z,8.91
2019-04-06T22:47:50.759Z,8.93
2019-04-06T22:50:19.170Z,8.81
2019-04-06T22:52:47.792Z,8.73
2019-04-06T22:55:16.435Z,8.59
2019-04-06T22:57:44.721Z,8.73
2019-04-06T23:00:25.206Z,8.75
2019-04-06T23:03:11.670Z,8.60
2019-04-06T23:05:43.983Z,8.59
2019-04-06T23:08:12.110Z,8.55
2019-04-06T23:10:40.920Z,8.43
2019-04-06T23:13:09.057Z,8.35
2019-04-06T23:15:37.238Z,8.26
2019-04-06T23:18:05.854Z,8.28
2019-04-06T23:20:34.613Z,8.29
2019-04-06T23:23:03.760Z,8.22
2019-04-06T23:25:32.340Z,8.12
2019-04-06T23:28:00.990Z,8.09
2019-04-06T23:30:29.302Z,8.08
2019-04-06T23:32:58.089Z,8.06
2019-04-06T23:35:26.492Z,7.97
2019-04-06T23:37:54.966Z,7.93
2019-04-06T23:40:23.186Z,7.87
2019-04-06T23:42:51.462Z,7.81
2019-04-06T23:45:19.700Z,7.79
2019-04-06T23:47:48.344Z,7.81
2019-04-06T23:50:17.010Z,7.74
2019-04-06T23:52:45.182Z,7.65
2019-04-06T23:55:13.529Z,7.47
2019-04-06T23:57:41.684Z,7.56
